sensor_id;sensor_type;location;lat;lon;timestamp;P1;P2;P0
33948;PMS7003;20229;49.856;19.030;2023-02-03T00:01:26;15;11;7
33948;PMS7003;20229;49.856;19.030;2023-02-03T00:06:48;17;13;9
33948;PMS7003;20229;49.856;19.030;2023-02-03T00:11:56;14;12;9
33948;PMS7003;20229;49.856;19.030;2023-02-03T00:17:14;13;11;8
33948;PMS7003;20229;49.856;19.030;2023-02-03T00:22:21;9;8;4
33948;PMS7003;20229;49.856;19.030;2023-02-03T00:27:40;13;10;7
33948;PMS7003;20229;49.856;19.030;2023-02-03T00:32:45;11;10;8
33948;PMS7003;20229;49.856;19.030;2023-02-03T00:38:05;10;8;6
33948;PMS7003;20229;49.856;19.030;2023-02-03T00:43:09;13;11;7
33948;PMS7003;20229;49.856;19.030;2023-02-03T00:48:31;13;10;7
33948;PMS7003;20229;49.856;19.030;2023-02-03T00:53:34;13;12;10
33948;PMS7003;20229;49.856;19.030;2023-02-03T00:58:57;15;13;10
33948;PMS7003;20229;49.856;19.030;2023-02-03T01:04:00;15;12;9
33948;PMS7003;20229;49.856;19.030;2023-02-03T01:09:23;9;9;8
33948;PMS7003;20229;49.856;19.030;2023-02-03T01:14:26;13;12;9
33948;PMS7003;20229;49.856;19.030;2023-02-03T01:19:49;11;8;5
33948;PMS7003;20229;49.856;19.030;2023-02-03T01:24:53;10;10;8
33948;PMS7003;20229;49.856;19.030;2023-02-03T01:30:14;3;3;2
33948;PMS7003;20229;49.856;19.030;2023-02-03T01:35:18;8;5;3
33948;PMS7003;20229;49.856;19.030;2023-02-03T01:40:43;8;7;3
33948;PMS7003;20229;49.856;19.030;2023-02-03T01:45:47;10;8;4
33948;PMS7003;20229;49.856;19.030;2023-02-03T01:51:05;12;9;3
33948;PMS7003;20229;49.856;19.030;2023-02-03T01:56:12;17;12;7
33948;PMS7003;20229;49.856;19.030;2023-02-03T02:01:31;8;6;2
33948;PMS7003;20229;49.856;19.030;2023-02-03T02:06:36;5;4;1
33948;PMS7003;20229;49.856;19.030;2023-02-03T02:11:57;2;1;0
33948;PMS7003;20229;49.856;19.030;2023-02-03T02:17:03;5;2;1
33948;PMS7003;20229;49.856;19.030;2023-02-03T02:22:25;27;24;19
33948;PMS7003;20229;49.856;19.030;2023-02-03T02:32:55;14;13;10
33948;PMS7003;20229;49.856;19.030;2023-02-03T02:38:12;13;10;8
33948;PMS7003;20229;49.856;19.030;2023-02-03T02:48:43;15;13;11
33948;PMS7003;20229;49.856;19.030;2023-02-03T02:53:53;23;21;16
33948;PMS7003;20229;49.856;19.030;2023-02-03T02:59:00;20;19;16
33948;PMS7003;20229;49.856;19.030;2023-02-03T03:04:07;21;19;16
33948;PMS7003;20229;49.856;19.030;2023-02-03T03:09:15;24;23;19
33948;PMS7003;20229;49.856;19.030;2023-02-03T03:14:31;23;21;16
33948;PMS7003;20229;49.856;19.030;2023-02-03T03:19:38;21;19;14
33948;PMS7003;20229;49.856;19.030;2023-02-03T03:24:59;19;16;12
33948;PMS7003;20229;49.856;19.030;2023-02-03T03:30:13;19;16;12
33948;PMS7003;20229;49.856;19.030;2023-02-03T03:35:27;13;10;8
33948;PMS7003;20229;49.856;19.030;2023-02-03T03:40:38;7;7;4
33948;PMS7003;20229;49.856;19.030;2023-02-03T03:45:53;11;8;5
33948;PMS7003;20229;49.856;19.030;2023-02-03T03:51:02;8;7;5
33948;PMS7003;20229;49.856;19.030;2023-02-03T03:56:16;10;8;7
33948;PMS7003;20229;49.856;19.030;2023-02-03T04:01:25;7;6;5
33948;PMS7003;20229;49.856;19.030;2023-02-03T04:06:40;8;8;5
33948;PMS7003;20229;49.856;19.030;2023-02-03T04:11:47;10;9;6
33948;PMS7003;20229;49.856;19.030;2023-02-03T04:17:07;7;6;4
33948;PMS7003;20229;49.856;19.030;2023-02-03T04:22:10;9;8;6
33948;PMS7003;20229;49.856;19.030;2023-02-03T04:27:33;13;11;8
33948;PMS7003;20229;49.856;19.030;2023-02-03T04:32:37;12;11;9
33948;PMS7003;20229;49.856;19.030;2023-02-03T04:37:58;16;12;9
33948;PMS7003;20229;49.856;19.030;2023-02-03T04:43:05;13;11;9
33948;PMS7003;20229;49.856;19.030;2023-02-03T04:48:27;15;13;11
33948;PMS7003;20229;49.856;19.030;2023-02-03T04:53:30;12;12;10
33948;PMS7003;20229;49.856;19.030;2023-02-03T04:58:49;13;12;11
33948;PMS7003;20229;49.856;19.030;2023-02-03T05:03:53;16;16;12
33948;PMS7003;20229;49.856;19.030;2023-02-03T05:09:15;14;14;12
33948;PMS7003;20229;49.856;19.030;2023-02-03T05:14:19;16;15;13
33948;PMS7003;20229;49.856;19.030;2023-02-03T05:19:41;13;12;10
33948;PMS7003;20229;49.856;19.030;2023-02-03T05:24:45;14;13;11
33948;PMS7003;20229;49.856;19.030;2023-02-03T05:30:07;15;15;12
33948;PMS7003;20229;49.856;19.030;2023-02-03T05:35:12;16;14;11
33948;PMS7003;20229;49.856;19.030;2023-02-03T05:40:32;16;14;13
33948;PMS7003;20229;49.856;19.030;2023-02-03T05:45:48;17;17;14
33948;PMS7003;20229;49.856;19.030;2023-02-03T05:50:58;16;15;12
33948;PMS7003;20229;49.856;19.030;2023-02-03T05:56:02;14;14;13
33948;PMS7003;20229;49.856;19.030;2023-02-03T06:01:24;11;10;8
33948;PMS7003;20229;49.856;19.030;2023-02-03T06:06:27;10;8;5
33948;PMS7003;20229;49.856;19.030;2023-02-03T06:11:50;10;8;7
33948;PMS7003;20229;49.856;19.030;2023-02-03T06:16:53;8;8;5
33948;PMS7003;20229;49.856;19.030;2023-02-03T06:22:15;12;10;7
33948;PMS7003;20229;49.856;19.030;2023-02-03T06:27:18;10;9;7
33948;PMS7003;20229;49.856;19.030;2023-02-03T06:32:41;11;9;7
33948;PMS7003;20229;49.856;19.030;2023-02-03T06:37:44;13;11;8
33948;PMS7003;20229;49.856;19.030;2023-02-03T06:43:07;17;16;11
33948;PMS7003;20229;49.856;19.030;2023-02-03T06:48:10;20;18;16
33948;PMS7003;20229;49.856;19.030;2023-02-03T06:53:32;14;13;10
33948;PMS7003;20229;49.856;19.030;2023-02-03T06:58:36;3;2;2
33948;PMS7003;20229;49.856;19.030;2023-02-03T07:03:57;3;3;1
33948;PMS7003;20229;49.856;19.030;2023-02-03T07:09:02;0;0;0
33948;PMS7003;20229;49.856;19.030;2023-02-03T07:14:23;8;7;6
33948;PMS7003;20229;49.856;19.030;2023-02-03T07:19:26;4;2;0
33948;PMS7003;20229;49.856;19.030;2023-02-03T07:24:49;3;2;0
33948;PMS7003;20229;49.856;19.030;2023-02-03T07:29:52;2;2;0
33948;PMS7003;20229;49.856;19.030;2023-02-03T07:35:15;4;4;2
33948;PMS7003;20229;49.856;19.030;2023-02-03T07:40:19;5;5;3
33948;PMS7003;20229;49.856;19.030;2023-02-03T07:45:40;12;8;8
33948;PMS7003;20229;49.856;19.030;2023-02-03T07:50:44;12;11;7
33948;PMS7003;20229;49.856;19.030;2023-02-03T07:56:06;6;6;3
33948;PMS7003;20229;49.856;19.030;2023-02-03T08:01:13;7;5;3
33948;PMS7003;20229;49.856;19.030;2023-02-03T08:06:31;9;6;3
33948;PMS7003;20229;49.856;19.030;2023-02-03T08:11:35;6;4;3
33948;PMS7003;20229;49.856;19.030;2023-02-03T08:16:57;3;2;1
33948;PMS7003;20229;49.856;19.030;2023-02-03T08:22:00;2;2;0
33948;PMS7003;20229;49.856;19.030;2023-02-03T08:27:23;3;3;1
33948;PMS7003;20229;49.856;19.030;2023-02-03T08:32:26;2;2;1
33948;PMS7003;20229;49.856;19.030;2023-02-03T08:37:48;2;1;0
33948;PMS7003;20229;49.856;19.030;2023-02-03T08:42:51;8;7;5
33948;PMS7003;20229;49.856;19.030;2023-02-03T08:48:14;4;2;1
33948;PMS7003;20229;49.856;19.030;2023-02-03T08:53:17;2;2;1
33948;PMS7003;20229;49.856;19.030;2023-02-03T08:58:39;4;3;1
33948;PMS7003;20229;49.856;19.030;2023-02-03T09:03:43;3;2;0
33948;PMS7003;20229;49.856;19.030;2023-02-03T09:09:05;5;4;3
33948;PMS7003;20229;49.856;19.030;2023-02-03T09:14:08;7;7;4
33948;PMS7003;20229;49.856;19.030;2023-02-03T09:19:31;4;4;3
33948;PMS7003;20229;49.856;19.030;2023-02-03T09:24:34;5;4;3
33948;PMS7003;20229;49.856;19.030;2023-02-03T09:29:56;6;5;5
33948;PMS7003;20229;49.856;19.030;2023-02-03T09:35:00;13;13;12
33948;PMS7003;20229;49.856;19.030;2023-02-03T09:40:31;19;19;17
33948;PMS7003;20229;49.856;19.030;2023-02-03T09:45:34;11;10;10
33948;PMS7003;20229;49.856;19.030;2023-02-03T09:50:48;16;14;13
33948;PMS7003;20229;49.856;19.030;2023-02-03T09:55:52;15;13;13
33948;PMS7003;20229;49.856;19.030;2023-02-03T10:01:13;15;13;11
33948;PMS7003;20229;49.856;19.030;2023-02-03T10:11:46;13;13;12
33948;PMS7003;20229;49.856;19.030;2023-02-03T10:22:15;20;20;17
33948;PMS7003;20229;49.856;19.030;2023-02-03T10:27:23;22;22;20
33948;PMS7003;20229;49.856;19.030;2023-02-03T10:32:31;16;16;13
33948;PMS7003;20229;49.856;19.030;2023-02-03T10:37:41;16;15;14
33948;PMS7003;20229;49.856;19.030;2023-02-03T10:42:56;9;9;8
33948;PMS7003;20229;49.856;19.030;2023-02-03T10:48:14;7;7;6
33948;PMS7003;20229;49.856;19.030;2023-02-03T10:53:26;9;9;7
33948;PMS7003;20229;49.856;19.030;2023-02-03T10:58:38;8;7;6
33948;PMS7003;20229;49.856;19.030;2023-02-03T11:09:08;9;8;7
33948;PMS7003;20229;49.856;19.030;2023-02-03T11:14:17;8;8;7
33948;PMS7003;20229;49.856;19.030;2023-02-03T11:19:21;5;4;4
33948;PMS7003;20229;49.856;19.030;2023-02-03T11:24:39;8;8;7
33948;PMS7003;20229;49.856;19.030;2023-02-03T11:29:45;7;6;5
33948;PMS7003;20229;49.856;19.030;2023-02-03T11:40:23;9;7;7
33948;PMS7003;20229;49.856;19.030;2023-02-03T11:45:35;6;6;5
33948;PMS7003;20229;49.856;19.030;2023-02-03T11:56:08;10;7;7
33948;PMS7003;20229;49.856;19.030;2023-02-03T12:06:42;5;5;4
33948;PMS7003;20229;49.856;19.030;2023-02-03T12:17:13;17;15;13
33948;PMS7003;20229;49.856;19.030;2023-02-03T12:32:58;33;29;27
33948;PMS7003;20229;49.856;19.030;2023-02-03T12:38:12;18;16;13
33948;PMS7003;20229;49.856;19.030;2023-02-03T12:48:44;23;19;16
33948;PMS7003;20229;49.856;19.030;2023-02-03T12:53:49;19;17;14
33948;PMS7003;20229;49.856;19.030;2023-02-03T12:59:08;18;16;13
33948;PMS7003;20229;49.856;19.030;2023-02-03T13:14:48;14;12;10
33948;PMS7003;20229;49.856;19.030;2023-02-03T13:20:01;18;15;12
33948;PMS7003;20229;49.856;19.030;2023-02-03T13:25:22;16;13;10
33948;PMS7003;20229;49.856;19.030;2023-02-03T13:35:44;16;14;11
33948;PMS7003;20229;49.856;19.030;2023-02-03T13:51:27;4;1;1
33948;PMS7003;20229;49.856;19.030;2023-02-03T13:56:39;6;4;2
33948;PMS7003;20229;49.856;19.030;2023-02-03T14:01:44;18;17;15
33948;PMS7003;20229;49.856;19.030;2023-02-03T14:22:29;9;9;9
33948;PMS7003;20229;49.856;19.030;2023-02-03T14:27:34;9;9;8
33948;PMS7003;20229;49.856;19.030;2023-02-03T14:37:54;11;10;9
33948;PMS7003;20229;49.856;19.030;2023-02-03T14:53:39;12;11;10
33948;PMS7003;20229;49.856;19.030;2023-02-03T14:58:55;11;9;7
33948;PMS7003;20229;49.856;19.030;2023-02-03T15:14:34;11;11;10
33948;PMS7003;20229;49.856;19.030;2023-02-03T15:19:39;11;9;7
33948;PMS7003;20229;49.856;19.030;2023-02-03T15:24:44;11;11;10
33948;PMS7003;20229;49.856;19.030;2023-02-03T15:29:54;11;11;10
33948;PMS7003;20229;49.856;19.030;2023-02-03T15:35:04;10;9;8
33948;PMS7003;20229;49.856;19.030;2023-02-03T15:40:15;13;13;11
33948;PMS7003;20229;49.856;19.030;2023-02-03T15:50:39;10;9;7
33948;PMS7003;20229;49.856;19.030;2023-02-03T15:55:51;13;13;11
33948;PMS7003;20229;49.856;19.030;2023-02-03T16:01:00;16;15;14
33948;PMS7003;20229;49.856;19.030;2023-02-03T16:06:18;15;14;13
33948;PMS7003;20229;49.856;19.030;2023-02-03T16:11:35;13;12;11
33948;PMS7003;20229;49.856;19.030;2023-02-03T16:16:41;12;12;10
33948;PMS7003;20229;49.856;19.030;2023-02-03T16:21:53;13;12;10
33948;PMS7003;20229;49.856;19.030;2023-02-03T16:32:21;21;20;17
33948;PMS7003;20229;49.856;19.030;2023-02-03T16:37:42;17;16;14
33948;PMS7003;20229;49.856;19.030;2023-02-03T16:42:58;19;18;14
33948;PMS7003;20229;49.856;19.030;2023-02-03T16:48:14;19;17;14
33948;PMS7003;20229;49.856;19.030;2023-02-03T16:53:30;16;14;12
33948;PMS7003;20229;49.856;19.030;2023-02-03T16:58:34;15;13;11
33948;PMS7003;20229;49.856;19.030;2023-02-03T17:03:38;22;20;16
33948;PMS7003;20229;49.856;19.030;2023-02-03T17:08:49;20;17;14
33948;PMS7003;20229;49.856;19.030;2023-02-03T17:13:53;13;12;10
33948;PMS7003;20229;49.856;19.030;2023-02-03T17:19:14;15;15;13
33948;PMS7003;20229;49.856;19.030;2023-02-03T17:24:18;20;20;15
33948;PMS7003;20229;49.856;19.030;2023-02-03T17:29:40;19;17;14
33948;PMS7003;20229;49.856;19.030;2023-02-03T17:34:44;24;21;17
33948;PMS7003;20229;49.856;19.030;2023-02-03T17:40:07;17;14;13
33948;PMS7003;20229;49.856;19.030;2023-02-03T17:45:11;22;20;17
33948;PMS7003;20229;49.856;19.030;2023-02-03T17:50:32;18;17;13
33948;PMS7003;20229;49.856;19.030;2023-02-03T17:55:36;19;18;15
33948;PMS7003;20229;49.856;19.030;2023-02-03T18:00:57;19;17;14
33948;PMS7003;20229;49.856;19.030;2023-02-03T18:06:00;19;18;15
33948;PMS7003;20229;49.856;19.030;2023-02-03T18:11:23;23;20;17
33948;PMS7003;20229;49.856;19.030;2023-02-03T18:16:27;22;20;16
33948;PMS7003;20229;49.856;19.030;2023-02-03T18:21:49;27;23;18
33948;PMS7003;20229;49.856;19.030;2023-02-03T18:26:52;32;28;22
33948;PMS7003;20229;49.856;19.030;2023-02-03T18:32:15;28;24;18
33948;PMS7003;20229;49.856;19.030;2023-02-03T18:37:19;29;25;19
33948;PMS7003;20229;49.856;19.030;2023-02-03T18:42:41;35;30;22
33948;PMS7003;20229;49.856;19.030;2023-02-03T18:47:44;31;27;21
33948;PMS7003;20229;49.856;19.030;2023-02-03T18:53:06;36;29;22
33948;PMS7003;20229;49.856;19.030;2023-02-03T18:58:11;35;30;22
33948;PMS7003;20229;49.856;19.030;2023-02-03T19:03:32;31;26;20
33948;PMS7003;20229;49.856;19.030;2023-02-03T19:08:36;29;25;20
33948;PMS7003;20229;49.856;19.030;2023-02-03T19:13:58;31;25;19
33948;PMS7003;20229;49.856;19.030;2023-02-03T19:19:01;41;32;25
33948;PMS7003;20229;49.856;19.030;2023-02-03T19:24:24;39;34;26
33948;PMS7003;20229;49.856;19.030;2023-02-03T19:29:29;30;24;18
33948;PMS7003;20229;49.856;19.030;2023-02-03T19:34:50;28;25;20
33948;PMS7003;20229;49.856;19.030;2023-02-03T19:39:53;27;23;19
33948;PMS7003;20229;49.856;19.030;2023-02-03T19:45:16;35;28;21
33948;PMS7003;20229;49.856;19.030;2023-02-03T19:50:19;30;26;20
33948;PMS7003;20229;49.856;19.030;2023-02-03T19:55:42;40;33;26
33948;PMS7003;20229;49.856;19.030;2023-02-03T20:00:46;23;19;14
33948;PMS7003;20229;49.856;19.030;2023-02-03T20:06:07;17;16;13
33948;PMS7003;20229;49.856;19.030;2023-02-03T20:11:11;39;31;25
33948;PMS7003;20229;49.856;19.030;2023-02-03T20:16:33;36;28;20
33948;PMS7003;20229;49.856;19.030;2023-02-03T20:21:36;29;26;18
33948;PMS7003;20229;49.856;19.030;2023-02-03T20:26:59;20;19;13
33948;PMS7003;20229;49.856;19.030;2023-02-03T20:32:03;26;25;18
33948;PMS7003;20229;49.856;19.030;2023-02-03T20:37:25;36;29;21
33948;PMS7003;20229;49.856;19.030;2023-02-03T20:43:17;38;30;23
33948;PMS7003;20229;49.856;19.030;2023-02-03T20:48:42;54;41;29
33948;PMS7003;20229;49.856;19.030;2023-02-03T20:53:46;25;21;15
33948;PMS7003;20229;49.856;19.030;2023-02-03T20:59:09;63;50;35
33948;PMS7003;20229;49.856;19.030;2023-02-03T21:04:15;38;30;22
33948;PMS7003;20229;49.856;19.030;2023-02-03T21:09:34;32;24;18
33948;PMS7003;20229;49.856;19.030;2023-02-03T21:14:41;29;25;17
33948;PMS7003;20229;49.856;19.030;2023-02-03T21:20:00;17;14;10
33948;PMS7003;20229;49.856;19.030;2023-02-03T21:25:05;50;38;26
33948;PMS7003;20229;49.856;19.030;2023-02-03T21:30:27;41;33;22
33948;PMS7003;20229;49.856;19.030;2023-02-03T21:35:36;56;43;29
33948;PMS7003;20229;49.856;19.030;2023-02-03T21:40:52;32;26;19
33948;PMS7003;20229;49.856;19.030;2023-02-03T21:45:59;20;19;15
33948;PMS7003;20229;49.856;19.030;2023-02-03T22:01:47;34;28;20
33948;PMS7003;20229;49.856;19.030;2023-02-03T22:06:52;49;39;26
33948;PMS7003;20229;49.856;19.030;2023-02-03T22:12:09;27;22;16
33948;PMS7003;20229;49.856;19.030;2023-02-03T22:17:13;32;25;18
33948;PMS7003;20229;49.856;19.030;2023-02-03T22:22:35;39;32;21
33948;PMS7003;20229;49.856;19.030;2023-02-03T22:27:38;42;32;22
33948;PMS7003;20229;49.856;19.030;2023-02-03T22:33:01;23;21;15
33948;PMS7003;20229;49.856;19.030;2023-02-03T22:38:04;38;29;21
33948;PMS7003;20229;49.856;19.030;2023-02-03T22:43:26;33;27;19
33948;PMS7003;20229;49.856;19.030;2023-02-03T22:48:43;40;33;23
33948;PMS7003;20229;49.856;19.030;2023-02-03T22:53:52;36;28;21
33948;PMS7003;20229;49.856;19.030;2023-02-03T22:58:56;27;23;16
33948;PMS7003;20229;49.856;19.030;2023-02-03T23:04:18;43;34;24
33948;PMS7003;20229;49.856;19.030;2023-02-03T23:09:21;32;24;18
33948;PMS7003;20229;49.856;19.030;2023-02-03T23:14:44;29;24;16
33948;PMS7003;20229;49.856;19.030;2023-02-03T23:19:47;23;21;15
33948;PMS7003;20229;49.856;19.030;2023-02-03T23:25:10;35;27;20
33948;PMS7003;20229;49.856;19.030;2023-02-03T23:30:14;24;22;17
33948;PMS7003;20229;49.856;19.030;2023-02-03T23:35:35;38;29;21
33948;PMS7003;20229;49.856;19.030;2023-02-03T23:40:48;19;18;14
33948;PMS7003;20229;49.856;19.030;2023-02-03T23:46:03;29;22;17
33948;PMS7003;20229;49.856;19.030;2023-02-03T23:51:07;41;32;21
33948;PMS7003;20229;49.856;19.030;2023-02-03T23:56:27;30;25;19
